Negombo, Sri Lanka
Current Conditions -  °F | °C
As of 8:10 AM on Thursday 27 Nov 2014 (Local Time) from VCBI Reporting Station
Haze Haze  
Wind Chill: 77°   Ceiling: 10000
Heat Index: 78°   Visibility: 2.5mi
Dew Point: 73°   Wind: 7mph
Humidity: 89%   Direction: 30°NNE
Pressure: 29.77"   Gusts: NA
Location:  7.22°N, 79.83°E
Report Text: VCBI 270210Z 03006KT 4000 BR FEW016 OVC100 25/23 Q1008 BECMG 6000
Loading
Personal Weather Stations






























Interactive Weather Map New forecast layout! Learn more

10-Day Weather Forecast

Advertisements
Track Severe Weather on mobile